Time;durP1;ratioP1;P1;durP2;ratioP2;P2;SDS_P1;SDS_P2;PMS_P1;PMS_P2;Temp;Humidity;BMP_temperature;BMP_pressure;BME280_temperature;BME280_humidity;BME280_pressure;Samples;Min_cycle;Max_cycle;Signal;HPM_P1;HPM_P2
2022/04/11 00:02:00;;;;;;;72.75;50.35;;;16.80;55.20;;;;;;4991890;28;95559;-39
2022/04/11 00:04:26;;;;;;;72.65;50.30;;;16.80;55.30;;;;;;4985312;28;95057;-36
2022/04/11 00:06:52;;;;;;;72.28;49.88;;;16.70;55.20;;;;;;4987134;28;94818;-38
2022/04/11 00:09:18;;;;;;;73.22;50.10;;;16.70;55.20;;;;;;4993179;28;96113;-39
2022/04/11 00:11:43;;;;;;;73.55;50.45;;;16.80;55.40;;;;;;4987093;28;95189;-36
2022/04/11 00:14:09;;;;;;;71.90;49.83;;;16.70;55.30;;;;;;4988703;28;96033;-38
2022/04/11 00:16:35;;;;;;;72.18;50.00;;;16.70;55.30;;;;;;4989974;28;101373;-40
2022/04/11 00:19:00;;;;;;;73.00;50.33;;;16.70;55.30;;;;;;4991361;28;97270;-39
2022/04/11 00:21:26;;;;;;;72.28;49.65;;;16.70;55.20;;;;;;4988962;28;95726;-39
2022/04/11 00:23:52;;;;;;;73.05;49.95;;;16.60;55.20;;;;;;4988575;28;95219;-38
2022/04/11 00:26:18;;;;;;;72.45;50.00;;;16.70;55.30;;;;;;4991353;28;97132;-41
2022/04/11 00:28:43;;;;;;;72.43;50.08;;;16.70;55.40;;;;;;4989227;28;95443;-38
2022/04/11 00:31:09;;;;;;;73.03;50.10;;;16.70;55.20;;;;;;4994069;28;95228;-39
2022/04/11 00:33:34;;;;;;;71.93;49.53;;;16.70;55.40;;;;;;4987765;28;95183;-40
2022/04/11 00:36:00;;;;;;;71.50;49.95;;;16.60;55.50;;;;;;5002010;27;94940;-38
2022/04/11 00:38:26;;;;;;;73.38;49.92;;;16.60;55.30;;;;;;4992460;28;96726;-38
2022/04/11 00:40:51;;;;;;;71.68;49.97;;;16.60;55.30;;;;;;4989388;28;95977;-38
2022/04/11 00:43:34;;;;;;;73.10;50.08;;;16.60;55.30;;;;;;4993179;28;95060;-39
2022/04/11 00:46:00;;;;;;;72.32;50.05;;;16.60;55.40;;;;;;4991774;28;94785;-41
2022/04/11 00:48:26;;;;;;;71.60;49.50;;;16.60;55.30;;;;;;4985951;28;95459;-40
2022/04/11 00:50:55;;;;;;;71.90;50.03;;;16.60;55.30;;;;;;4992743;28;96251;-36
2022/04/11 00:53:23;;;;;;;72.30;49.97;;;16.60;55.40;;;;;;4986806;28;95559;-36
2022/04/11 00:55:50;;;;;;;72.53;50.03;;;16.50;55.30;;;;;;4984095;28;94457;-38
2022/04/11 00:58:18;;;;;;;72.45;50.22;;;16.50;55.40;;;;;;4991644;28;95005;-38
2022/04/11 01:00:44;;;;;;;72.53;50.15;;;16.50;55.30;;;;;;4991844;27;95888;-37
2022/04/11 01:03:10;;;;;;;71.35;49.60;;;16.50;55.40;;;;;;4991518;28;96054;-39
2022/04/11 01:05:36;;;;;;;71.68;49.70;;;16.50;55.40;;;;;;4989411;28;95256;-40
2022/04/11 01:08:06;;;;;;;71.88;49.72;;;16.50;55.50;;;;;;4985826;28;97878;-40
2022/04/11 01:10:33;;;;;;;71.75;49.95;;;16.50;55.50;;;;;;4980744;28;95189;-40
2022/04/11 01:12:59;;;;;;;71.13;49.75;;;16.40;55.40;;;;;;4988724;28;95275;-39
2022/04/11 01:15:24;;;;;;;72.00;49.45;;;16.50;55.40;;;;;;4995484;28;100102;-38
2022/04/11 01:17:50;;;;;;;71.60;49.83;;;16.40;55.40;;;;;;4997499;28;94823;-37
2022/04/11 01:20:16;;;;;;;71.22;49.60;;;16.40;55.50;;;;;;4991285;28;94742;-39
2022/04/11 01:22:43;;;;;;;71.07;49.63;;;16.40;55.40;;;;;;4990987;28;95198;-37
2022/04/11 01:25:10;;;;;;;72.47;49.60;;;16.40;55.30;;;;;;4983436;28;95156;-37
2022/04/11 01:27:37;;;;;;;71.25;49.55;;;16.40;55.40;;;;;;4994537;28;96386;-38
2022/04/11 01:30:04;;;;;;;72.25;49.65;;;16.40;55.50;;;;;;4998423;28;96706;-38
2022/04/11 01:32:30;;;;;;;71.95;49.83;;;16.40;55.50;;;;;;4993435;28;95024;-40
2022/04/11 01:34:56;;;;;;;71.50;49.78;;;16.40;55.50;;;;;;4995936;28;94950;-38
2022/04/11 01:37:22;;;;;;;72.47;49.70;;;16.30;55.30;;;;;;4994116;28;95119;-38
2022/04/11 01:39:48;;;;;;;71.47;49.75;;;16.30;55.50;;;;;;4990629;28;101100;-39
2022/04/11 01:42:14;;;;;;;71.95;49.85;;;16.30;55.40;;;;;;4995731;28;95455;-38
2022/04/11 01:44:39;;;;;;;71.72;49.65;;;16.30;55.30;;;;;;4998253;28;93903;-38
2022/04/11 01:47:05;;;;;;;71.00;49.72;;;16.30;55.40;;;;;;4992877;28;96026;-39
2022/04/11 01:49:31;;;;;;;71.55;49.67;;;16.30;55.40;;;;;;4996480;28;96387;-40
2022/04/11 01:51:56;;;;;;;72.10;49.97;;;16.30;55.40;;;;;;4985174;28;97116;-38
2022/04/11 01:54:22;;;;;;;71.28;49.80;;;16.30;55.50;;;;;;4985783;28;96754;-36
2022/04/11 01:56:47;;;;;;;71.78;49.90;;;16.30;55.40;;;;;;4993505;28;95055;-35
2022/04/11 01:59:14;;;;;;;71.65;49.55;;;16.30;55.40;;;;;;4988535;28;95670;-37
2022/04/11 02:01:40;;;;;;;70.32;49.47;;;16.20;55.40;;;;;;5001699;28;95487;-34
2022/04/11 02:04:06;;;;;;;71.45;49.45;;;16.20;55.30;;;;;;4991273;28;96365;-36
2022/04/11 02:06:32;;;;;;;71.28;49.72;;;16.20;55.50;;;;;;4989628;28;95020;-40
2022/04/11 02:08:57;;;;;;;70.50;49.45;;;16.20;55.50;;;;;;4995806;27;94521;-39
2022/04/11 02:11:23;;;;;;;70.65;49.45;;;16.20;55.40;;;;;;4992161;28;95085;-39
2022/04/11 02:13:49;;;;;;;70.93;49.58;;;16.20;55.30;;;;;;4995108;28;95460;-39
2022/04/11 02:16:14;;;;;;;70.38;49.35;;;16.20;55.50;;;;;;4993204;28;95922;-38
2022/04/11 02:18:40;;;;;;;70.50;49.58;;;16.20;55.40;;;;;;4994496;28;96559;-38
2022/04/11 02:21:05;;;;;;;72.03;49.72;;;16.10;55.40;;;;;;4993723;28;96741;-40
2022/04/11 02:23:31;;;;;;;69.53;49.17;;;16.10;55.40;;;;;;4996849;28;95726;-40
2022/04/11 02:25:57;;;;;;;70.43;49.65;;;16.10;55.40;;;;;;4989827;28;95412;-40
2022/04/11 02:28:22;;;;;;;71.85;49.92;;;16.10;55.40;;;;;;4997820;28;95090;-36
2022/04/11 02:30:48;;;;;;;70.03;49.38;;;16.10;55.40;;;;;;4995084;28;95639;-38
2022/04/11 02:33:14;;;;;;;70.05;49.67;;;16.10;55.40;;;;;;4995859;28;94487;-38
2022/04/11 02:35:41;;;;;;;70.10;49.55;;;16.10;55.40;;;;;;4989336;28;95516;-38
2022/04/11 02:38:06;;;;;;;70.30;49.53;;;16.10;55.40;;;;;;4993527;28;95768;-37
2022/04/11 02:40:32;;;;;;;70.18;49.55;;;16.10;55.40;;;;;;4992876;28;95828;-35
2022/04/11 02:42:58;;;;;;;70.05;49.53;;;16.00;55.40;;;;;;4997019;28;95147;-36
2022/04/11 02:45:24;;;;;;;70.70;49.33;;;16.10;55.40;;;;;;4986547;28;95484;-37
2022/04/11 02:47:50;;;;;;;70.35;49.38;;;16.00;55.40;;;;;;4992172;28;95143;-39
2022/04/11 02:50:16;;;;;;;72.50;49.75;;;16.00;55.30;;;;;;4986198;27;94982;-38
2022/04/11 02:52:42;;;;;;;71.03;49.67;;;16.00;55.40;;;;;;4992812;28;94998;-42
2022/04/11 02:55:08;;;;;;;70.47;49.60;;;16.00;55.40;;;;;;4985036;28;101230;-40
2022/04/11 02:57:36;;;;;;;70.97;49.63;;;16.00;55.30;;;;;;4986637;28;95647;-38
2022/04/11 03:00:04;;;;;;;70.82;49.53;;;16.00;55.40;;;;;;4986434;28;96215;-40
2022/04/11 03:02:30;;;;;;;71.07;49.45;;;16.00;55.50;;;;;;4990768;28;95699;-40
2022/04/11 03:04:55;;;;;;;70.85;49.80;;;16.00;55.40;;;;;;4993575;28;96518;-38
2022/04/11 03:07:21;;;;;;;70.32;49.50;;;15.90;55.50;;;;;;4987716;28;95948;-35
2022/04/11 03:09:47;;;;;;;70.20;49.50;;;16.00;55.40;;;;;;4989153;28;97352;-39
2022/04/11 03:12:13;;;;;;;70.25;49.40;;;15.90;55.50;;;;;;4989549;28;95109;-35
2022/04/11 03:14:39;;;;;;;69.93;49.55;;;15.90;55.40;;;;;;4991946;28;98020;-39
2022/04/11 03:17:04;;;;;;;70.38;49.28;;;15.90;55.50;;;;;;4988269;28;95576;-34
2022/04/11 03:19:30;;;;;;;70.90;49.20;;;15.90;55.40;;;;;;4991905;28;94998;-41
2022/04/11 03:21:56;;;;;;;69.47;49.38;;;15.90;55.50;;;;;;4990063;28;94325;-41
2022/04/11 03:24:21;;;;;;;70.50;49.58;;;15.90;55.50;;;;;;4994211;28;95662;-39
2022/04/11 03:26:47;;;;;;;70.22;49.22;;;15.80;55.60;;;;;;4979066;28;95222;-39
2022/04/11 03:29:13;;;;;;;69.90;49.17;;;15.80;56.10;;;;;;4990127;28;96110;-40
2022/04/11 03:31:38;;;;;;;69.57;49.50;;;15.80;55.60;;;;;;4994357;28;96824;-39
2022/04/11 03:34:04;;;;;;;69.78;48.95;;;15.80;55.60;;;;;;4991134;28;95591;-39
2022/04/11 03:36:30;;;;;;;69.93;49.38;;;15.80;56.20;;;;;;4993737;28;94814;-37
2022/04/11 03:38:55;;;;;;;69.72;49.15;;;15.80;55.50;;;;;;4993485;28;95105;-38
2022/04/11 03:41:21;;;;;;;69.53;49.17;;;15.80;55.40;;;;;;4992191;28;95019;-40
2022/04/11 03:43:47;;;;;;;69.70;49.35;;;15.70;56.00;;;;;;4996692;28;94855;-39
2022/04/11 03:46:12;;;;;;;69.30;49.17;;;15.70;55.50;;;;;;4992188;28;94553;-37
2022/04/11 03:48:38;;;;;;;69.55;49.17;;;15.80;55.50;;;;;;4995657;28;94915;-41
2022/04/11 03:51:03;;;;;;;70.97;49.58;;;15.70;55.40;;;;;;4992623;28;96921;-38
2022/04/11 03:53:29;;;;;;;70.78;49.30;;;15.70;55.40;;;;;;4991310;28;96344;-35
2022/04/11 03:55:55;;;;;;;69.82;49.38;;;15.70;55.50;;;;;;4982176;28;95223;-39
2022/04/11 03:58:20;;;;;;;70.70;49.53;;;15.70;55.40;;;;;;4994799;28;95444;-39
2022/04/11 04:00:46;;;;;;;70.10;49.17;;;15.70;55.50;;;;;;4989893;28;95845;-39
2022/04/11 04:03:21;;;;;;;70.32;49.22;;;15.70;55.60;;;;;;4981404;28;83059;-33
2022/04/11 04:05:47;;;;;;;70.55;49.45;;;15.70;55.40;;;;;;4966126;28;86317;-32
2022/04/11 04:08:13;;;;;;;70.22;49.25;;;15.60;55.40;;;;;;4971870;28;86200;-32
2022/04/11 04:10:43;;;;;;;69.47;49.22;;;15.70;55.40;;;;;;4968747;28;84846;-33
2022/04/11 04:13:09;;;;;;;69.78;49.13;;;15.60;55.30;;;;;;4971588;28;85696;-32
2022/04/11 04:15:36;;;;;;;69.25;49.20;;;15.60;55.50;;;;;;4967522;28;85360;-32
2022/04/11 04:18:01;;;;;;;69.07;49.13;;;15.60;55.50;;;;;;4966616;28;85718;-33
2022/04/11 04:20:27;;;;;;;68.55;48.88;;;15.60;55.60;;;;;;4962027;28;85240;-33
2022/04/11 04:22:53;;;;;;;70.00;49.13;;;15.60;55.50;;;;;;4964030;28;85399;-32
2022/04/11 04:25:19;;;;;;;69.22;49.17;;;15.60;55.50;;;;;;4966748;28;87462;-33
2022/04/11 04:27:45;;;;;;;69.63;49.17;;;15.60;55.60;;;;;;4968001;28;86064;-32
2022/04/11 04:30:12;;;;;;;69.63;49.40;;;15.60;55.60;;;;;;4968731;28;85211;-32
2022/04/11 04:32:38;;;;;;;69.88;49.22;;;15.60;55.60;;;;;;4971385;28;84952;-32
2022/04/11 04:35:05;;;;;;;68.90;49.20;;;15.60;55.70;;;;;;4972268;28;85670;-32
2022/04/11 04:37:31;;;;;;;68.93;49.03;;;15.50;55.60;;;;;;4966857;28;85466;-32
2022/04/11 04:39:57;;;;;;;70.07;49.33;;;15.50;55.50;;;;;;4971735;28;85237;-32
2022/04/11 04:42:25;;;;;;;70.05;48.85;;;15.50;55.60;;;;;;4969677;28;85986;-32
2022/04/11 04:44:50;;;;;;;69.25;49.35;;;15.50;55.50;;;;;;4970545;28;85825;-32
2022/04/11 04:47:16;;;;;;;69.45;49.20;;;15.50;55.60;;;;;;4965491;28;85585;-33
2022/04/11 04:49:43;;;;;;;69.20;49.00;;;15.50;55.60;;;;;;4962792;28;85316;-33
2022/04/11 04:52:08;;;;;;;69.13;49.15;;;15.50;55.50;;;;;;4960041;28;86383;-33
2022/04/11 04:54:35;;;;;;;68.85;49.05;;;15.50;55.60;;;;;;4971791;28;86145;-34
2022/04/11 04:57:00;;;;;;;69.03;49.00;;;15.50;55.60;;;;;;4961393;28;86723;-34
2022/04/11 04:59:26;;;;;;;68.95;48.92;;;15.50;55.60;;;;;;4966034;28;86042;-34
2022/04/11 05:01:52;;;;;;;69.70;49.05;;;15.40;55.50;;;;;;4962641;28;86806;-33
2022/04/11 05:04:17;;;;;;;69.68;49.08;;;15.40;55.50;;;;;;4972890;28;85699;-33
2022/04/11 05:06:43;;;;;;;69.68;49.10;;;15.40;55.50;;;;;;4961294;28;85047;-33
2022/04/11 05:09:09;;;;;;;69.32;49.05;;;15.40;55.60;;;;;;4964605;28;84931;-33
2022/04/11 05:11:34;;;;;;;69.07;49.00;;;15.40;55.60;;;;;;4968266;28;85170;-33
2022/04/11 05:14:00;;;;;;;70.28;48.95;;;15.40;55.50;;;;;;4952053;28;86846;-33
2022/04/11 05:16:25;;;;;;;70.03;48.95;;;15.40;55.50;;;;;;4953710;28;85266;-33
2022/04/11 05:18:51;;;;;;;69.20;48.80;;;15.40;55.70;;;;;;4958949;28;85382;-34
2022/04/11 05:21:17;;;;;;;69.25;48.83;;;15.40;55.40;;;;;;4952871;28;85596;-33
2022/04/11 05:23:42;;;;;;;70.75;49.28;;;15.40;55.50;;;;;;4952823;28;85572;-35
2022/04/11 05:26:08;;;;;;;69.75;49.20;;;15.40;55.50;;;;;;4947580;28;85665;-33
2022/04/11 05:28:34;;;;;;;70.38;49.30;;;15.40;55.50;;;;;;4950855;28;85630;-34
2022/04/11 05:31:00;;;;;;;69.85;49.25;;;15.40;55.40;;;;;;4953389;28;86162;-34
2022/04/11 05:33:26;;;;;;;69.68;49.03;;;15.40;55.40;;;;;;4957693;28;85934;-34
2022/04/11 05:35:52;;;;;;;69.15;49.20;;;15.40;55.30;;;;;;4952054;28;85962;-34
2022/04/11 05:38:19;;;;;;;69.63;48.85;;;15.40;55.40;;;;;;4955793;28;85495;-33
2022/04/11 05:40:48;;;;;;;69.55;49.28;;;15.40;55.40;;;;;;4949438;28;85911;-34
2022/04/11 05:43:14;;;;;;;69.53;49.25;;;15.40;55.50;;;;;;4957479;28;85847;-34
2022/04/11 05:45:43;;;;;;;69.38;49.15;;;15.40;55.40;;;;;;4955767;28;85426;-33
2022/04/11 05:48:09;;;;;;;69.40;49.22;;;15.40;55.30;;;;;;4955162;28;85617;-33
2022/04/11 05:50:35;;;;;;;69.47;49.20;;;15.40;55.30;;;;;;4951292;28;85400;-33
2022/04/11 05:53:04;;;;;;;68.82;49.00;;;15.40;55.30;;;;;;4941957;28;85527;-34
2022/04/11 05:55:30;;;;;;;70.18;49.15;;;15.40;55.20;;;;;;4952820;28;85838;-34
2022/04/11 05:57:55;;;;;;;69.22;49.25;;;15.40;55.20;;;;;;4950828;28;85517;-34
2022/04/11 06:00:22;;;;;;;70.28;49.20;;;15.40;55.20;;;;;;4947929;28;86060;-33
2022/04/11 06:02:48;;;;;;;71.70;49.35;;;15.40;55.20;;;;;;4954443;28;86826;-33
2022/04/11 06:05:14;;;;;;;70.22;49.05;;;15.40;55.10;;;;;;4947737;28;86463;-34
2022/04/11 06:07:40;;;;;;;69.00;49.08;;;15.40;55.20;;;;;;4952989;28;85599;-33
2022/04/11 06:10:07;;;;;;;69.07;49.08;;;15.40;55.10;;;;;;4956078;28;92224;-34
2022/04/11 06:12:34;;;;;;;70.43;49.45;;;15.40;55.10;;;;;;4946676;28;85762;-33
2022/04/11 06:14:59;;;;;;;69.78;49.30;;;15.40;55.10;;;;;;4953170;28;86087;-34
2022/04/11 06:17:25;;;;;;;71.38;49.15;;;15.40;55.10;;;;;;4953150;28;85577;-33
2022/04/11 06:19:58;;;;;;;70.43;49.25;;;15.40;55.10;;;;;;4951313;28;87041;-33
2022/04/11 06:22:24;;;;;;;70.65;49.08;;;15.40;55.00;;;;;;4944458;28;87511;-33
2022/04/11 06:24:50;;;;;;;72.70;49.33;;;15.30;55.00;;;;;;4951478;28;85362;-33
2022/04/11 06:27:19;;;;;;;71.13;49.25;;;15.40;55.00;;;;;;4946605;28;86434;-33
2022/04/11 06:29:46;;;;;;;69.75;49.15;;;15.40;54.90;;;;;;4945610;28;85095;-34
2022/04/11 06:32:12;;;;;;;71.53;49.40;;;15.40;54.90;;;;;;4948689;28;87090;-33
2022/04/11 06:34:39;;;;;;;69.75;49.38;;;15.40;54.90;;;;;;4953185;28;85700;-34
2022/04/11 06:37:05;;;;;;;70.57;49.30;;;15.40;54.90;;;;;;4958495;28;85947;-33
2022/04/11 06:39:30;;;;;;;70.60;49.40;;;15.40;54.80;;;;;;4957676;28;85103;-33
2022/04/11 06:41:57;;;;;;;69.97;49.45;;;15.40;54.80;;;;;;4950215;28;85693;-33
2022/04/11 06:44:23;;;;;;;70.40;49.45;;;15.40;54.80;;;;;;4955133;28;86384;-34
2022/04/11 06:46:49;;;;;;;70.75;49.72;;;15.40;54.70;;;;;;4951837;28;88826;-33
2022/04/11 06:49:14;;;;;;;71.50;49.35;;;15.40;54.60;;;;;;4943524;28;87276;-33
2022/04/11 06:51:40;;;;;;;70.40;49.20;;;15.40;54.70;;;;;;4948808;28;85588;-34
2022/04/11 06:54:06;;;;;;;70.63;49.55;;;15.40;54.60;;;;;;4943057;28;86273;-34
2022/04/11 06:56:32;;;;;;;70.03;49.47;;;15.50;54.60;;;;;;4949225;28;85551;-34
2022/04/11 06:58:58;;;;;;;70.38;49.38;;;15.50;54.50;;;;;;4944647;28;88752;-33
2022/04/11 07:01:23;;;;;;;69.80;49.42;;;15.40;54.60;;;;;;4942328;28;85654;-33
2022/04/11 07:03:51;;;;;;;69.80;49.17;;;15.40;54.50;;;;;;4949532;28;85545;-33
2022/04/11 07:06:17;;;;;;;70.85;49.22;;;15.40;54.50;;;;;;4947085;28;88041;-34
2022/04/11 07:08:43;;;;;;;69.30;49.13;;;15.40;54.50;;;;;;4952528;28;87856;-34
2022/04/11 07:11:09;;;;;;;71.50;49.83;;;15.50;54.50;;;;;;4948385;28;85581;-34
2022/04/11 07:13:35;;;;;;;71.10;49.42;;;15.50;54.50;;;;;;4955568;28;85963;-34
2022/04/11 07:16:01;;;;;;;70.10;49.35;;;15.50;54.50;;;;;;4954052;28;86885;-34
2022/04/11 07:18:27;;;;;;;71.20;49.22;;;15.50;54.50;;;;;;4951857;28;91694;-34
2022/04/11 07:20:56;;;;;;;69.95;49.35;;;15.50;54.60;;;;;;4947644;28;85898;-33
2022/04/11 07:23:22;;;;;;;70.97;49.28;;;15.50;54.60;;;;;;4950586;28;85525;-34
2022/04/11 07:25:48;;;;;;;71.65;49.92;;;15.50;54.60;;;;;;4952822;28;85714;-33
2022/04/11 07:28:14;;;;;;;70.90;49.25;;;15.60;54.60;;;;;;4940647;28;86484;-34
2022/04/11 07:30:40;;;;;;;73.20;49.28;;;15.60;55.20;;;;;;4946076;28;86158;-34
2022/04/11 07:33:07;;;;;;;71.32;49.35;;;15.60;54.70;;;;;;4948381;28;86250;-35
2022/04/11 07:35:33;;;;;;;71.20;49.47;;;15.60;54.40;;;;;;4937502;28;85419;-33
2022/04/11 07:38:00;;;;;;;70.57;49.70;;;15.60;54.20;;;;;;4954613;28;87820;-34
2022/04/11 07:40:26;;;;;;;71.28;49.45;;;15.60;54.10;;;;;;4943935;28;87579;-34
2022/04/11 07:42:52;;;;;;;73.90;49.72;;;15.60;53.90;;;;;;4950568;28;86236;-34
2022/04/11 07:45:19;;;;;;;75.47;49.88;;;15.60;53.60;;;;;;4942509;28;85750;-32
2022/04/11 07:47:45;;;;;;;78.20;49.75;;;15.50;53.90;;;;;;4942609;28;86727;-32
2022/04/11 07:50:11;;;;;;;76.47;50.20;;;15.60;53.80;;;;;;4943250;28;86474;-30
2022/04/11 07:52:38;;;;;;;79.88;51.08;;;15.60;54.00;;;;;;4956307;28;85946;-31
2022/04/11 07:55:04;;;;;;;77.10;51.88;;;15.60;54.70;;;;;;4955301;28;86215;-32
2022/04/11 07:57:30;;;;;;;83.25;56.42;;;15.70;54.00;;;;;;4941766;28;85458;-31
2022/04/11 07:59:55;;;;;;;82.50;56.28;;;15.70;54.10;;;;;;4947603;28;85770;-31
2022/04/11 08:02:27;;;;;;;83.88;56.80;;;15.70;54.00;;;;;;4948929;28;85996;-31
2022/04/11 08:04:53;;;;;;;81.07;55.22;;;15.80;54.00;;;;;;4934832;28;85690;-32
2022/04/11 08:07:20;;;;;;;82.88;55.60;;;15.80;54.10;;;;;;4937450;28;85280;-32
2022/04/11 08:09:46;;;;;;;81.82;54.88;;;15.90;54.10;;;;;;4948837;28;86480;-32
2022/04/11 08:12:11;;;;;;;84.22;54.55;;;15.90;54.20;;;;;;4953264;28;85555;-32
2022/04/11 08:14:37;;;;;;;79.43;54.40;;;15.90;54.20;;;;;;4954603;28;85785;-33
2022/04/11 08:17:03;;;;;;;79.35;54.72;;;16.00;54.40;;;;;;4945070;28;86769;-36
2022/04/11 08:19:29;;;;;;;79.50;54.30;;;16.00;54.30;;;;;;4948822;28;86260;-33
2022/04/11 08:21:56;;;;;;;80.45;54.30;;;16.10;54.20;;;;;;4950824;28;91209;-33
2022/04/11 08:24:21;;;;;;;80.60;54.50;;;16.10;54.70;;;;;;4951585;28;85010;-32
2022/04/11 08:26:47;;;;;;;79.70;54.17;;;16.20;54.80;;;;;;4946174;28;86578;-33
2022/04/11 08:29:13;;;;;;;81.70;54.67;;;16.30;54.70;;;;;;4957303;28;86774;-33
2022/04/11 08:31:39;;;;;;;78.90;54.05;;;16.40;55.00;;;;;;4940690;28;88670;-33
2022/04/11 08:34:05;;;;;;;78.63;53.70;;;16.40;54.60;;;;;;4952302;28;85634;-33
2022/04/11 08:36:30;;;;;;;80.65;53.20;;;16.40;54.20;;;;;;4951110;28;91084;-33
2022/04/11 08:38:56;;;;;;;81.85;53.78;;;16.50;54.10;;;;;;4946899;28;85818;-33
2022/04/11 08:41:26;;;;;;;77.40;53.20;;;16.50;53.90;;;;;;4947332;28;86193;-33
2022/04/11 08:43:54;;;;;;;78.07;53.33;;;16.50;53.60;;;;;;4944881;28;87615;-34
2022/04/11 08:46:21;;;;;;;76.30;52.95;;;16.60;53.40;;;;;;4947156;28;85843;-33
2022/04/11 08:48:46;;;;;;;78.28;53.42;;;16.60;53.20;;;;;;4944203;28;85943;-33
2022/04/11 08:51:12;;;;;;;77.15;53.28;;;16.70;53.60;;;;;;4953514;28;87174;-33
2022/04/11 08:53:38;;;;;;;76.88;53.33;;;16.80;53.90;;;;;;4959016;28;85062;-33
2022/04/11 08:56:04;;;;;;;78.00;53.17;;;16.90;53.80;;;;;;4950749;28;86344;-34
2022/04/11 08:58:30;;;;;;;79.80;53.25;;;16.90;53.70;;;;;;4961185;28;86412;-33
2022/04/11 09:00:55;;;;;;;81.22;53.25;;;17.00;53.60;;;;;;4948423;28;85736;-33
2022/04/11 09:03:21;;;;;;;80.00;53.25;;;17.00;53.80;;;;;;4944392;28;86530;-33
2022/04/11 09:06:03;;;;;;;84.45;53.38;;;17.00;53.50;;;;;;4947302;28;86787;-33
2022/04/11 09:08:37;;;;;;;;;;;17.10;53.70;;;;;;4948622;28;86442;-33
2022/04/11 09:11:03;;;;;;;84.20;53.33;;;17.10;53.20;;;;;;4948437;28;85209;-34
2022/04/11 09:13:46;;;;;;;84.80;52.92;;;17.10;52.90;;;;;;4947660;28;85295;-33
2022/04/11 09:16:12;;;;;;;86.82;53.38;;;17.10;52.40;;;;;;4940635;28;87497;-33
2022/04/11 09:18:47;;;;;;;88.43;54.13;;;17.10;52.00;;;;;;4940047;28;87977;-34
2022/04/11 09:21:14;;;;;;;88.00;52.63;;;17.10;52.20;;;;;;4948286;28;87432;-33
2022/04/11 09:23:40;;;;;;;84.40;53.05;;;17.20;51.90;;;;;;4954974;28;89861;-34
2022/04/11 09:26:17;;;;;;;81.30;52.75;;;17.20;51.70;;;;;;4957976;28;85431;-33
2022/04/11 09:28:43;;;;;;;82.70;53.47;;;17.20;51.50;;;;;;4956385;28;89247;-34
2022/04/11 09:31:08;;;;;;;80.75;52.65;;;17.30;51.50;;;;;;4944250;28;87285;-34
2022/04/11 09:33:39;;;;;;;79.15;52.08;;;17.30;51.40;;;;;;4953188;28;86054;-33
2022/04/11 09:36:04;;;;;;;83.38;52.78;;;17.30;51.20;;;;;;4951610;28;85742;-33
2022/04/11 09:38:37;;;;;;;81.70;52.53;;;17.40;51.10;;;;;;4949797;28;86110;-33
2022/04/11 09:41:03;;;;;;;78.35;52.28;;;17.40;51.00;;;;;;4955186;28;85548;-33
2022/04/11 09:43:32;;;;;;;79.18;52.42;;;17.40;50.90;;;;;;4955543;28;85533;-34
2022/04/11 09:46:00;;;;;;;84.85;53.05;;;17.40;50.90;;;;;;4944826;28;85697;-33
2022/04/11 09:48:28;;;;;;;79.90;52.55;;;17.40;50.80;;;;;;4953010;28;88252;-33
2022/04/11 09:50:55;;;;;;;82.43;52.80;;;17.50;51.60;;;;;;4951222;28;87386;-34
2022/04/11 09:53:23;;;;;;;80.40;52.85;;;17.50;50.70;;;;;;4957812;28;85603;-34
2022/04/11 09:55:53;;;;;;;83.28;52.88;;;17.50;50.60;;;;;;4953466;28;85596;-33
2022/04/11 09:58:21;;;;;;;79.72;52.95;;;17.60;50.70;;;;;;4943874;28;85621;-34
2022/04/11 10:00:48;;;;;;;81.82;52.85;;;17.60;50.50;;;;;;4950516;28;85353;-34
2022/04/11 10:03:15;;;;;;;80.57;52.72;;;17.60;50.40;;;;;;4957464;28;86075;-33
2022/04/11 10:05:41;;;;;;;86.60;53.22;;;17.60;50.40;;;;;;4950615;28;85177;-34
2022/04/11 10:08:10;;;;;;;80.57;52.83;;;17.70;50.20;;;;;;4946020;28;85812;-34
2022/04/11 10:10:41;;;;;;;81.65;52.97;;;17.70;50.30;;;;;;4949319;28;91634;-33
2022/04/11 10:13:16;;;;;;;82.10;53.05;;;17.70;50.10;;;;;;4940093;28;86604;-34
2022/04/11 10:15:48;;;;;;;79.28;52.97;;;17.80;50.40;;;;;;4938270;28;85622;-33
2022/04/11 10:18:21;;;;;;;82.85;53.00;;;17.80;50.70;;;;;;4940621;28;86638;-34
2022/04/11 10:20:50;;;;;;;84.57;53.35;;;17.80;50.70;;;;;;4939771;28;86433;-33
2022/04/11 10:23:34;;;;;;;81.78;53.15;;;17.80;50.80;;;;;;4952970;28;85014;-34
2022/04/11 10:26:03;;;;;;;80.65;52.92;;;17.90;50.90;;;;;;4952214;28;88354;-34
2022/04/11 10:28:30;;;;;;;81.20;53.17;;;17.90;50.90;;;;;;4936366;28;91065;-33
2022/04/11 10:31:10;;;;;;;80.10;52.97;;;17.90;50.80;;;;;;4945616;28;86860;-34
2022/04/11 10:33:52;;;;;;;81.85;52.90;;;17.90;50.80;;;;;;4945515;28;86378;-33
2022/04/11 10:36:38;;;;;;;;;;;17.90;50.80;;;;;;4944243;28;91503;-34
2022/04/11 10:39:12;;;;;;;81.30;53.10;;;17.90;50.70;;;;;;4949306;28;84607;-34
2022/04/11 10:41:56;;;;;;;80.03;52.78;;;18.00;50.70;;;;;;4940653;28;85640;-33
2022/04/11 10:44:53;;;;;;;79.65;53.40;;;18.00;50.60;;;;;;4941815;28;85922;-33
2022/04/11 10:47:26;;;;;;;80.10;53.25;;;18.00;50.50;;;;;;4939111;28;86137;-34
2022/04/11 10:49:55;;;;;;;81.55;53.15;;;18.10;50.40;;;;;;4948727;28;89418;-34
2022/04/11 10:52:31;;;;;;;82.28;53.40;;;18.00;50.30;;;;;;4949134;28;86091;-34
2022/04/11 10:55:09;;;;;;;81.65;52.97;;;18.10;50.30;;;;;;4954434;28;85550;-32
2022/04/11 10:57:41;;;;;;;80.45;53.40;;;18.20;50.20;;;;;;4935840;28;92412;-33
2022/04/11 11:00:35;;;;;;;84.05;53.85;;;18.20;50.10;;;;;;4933802;28;86314;-33
2022/04/11 11:03:04;;;;;;;82.30;53.67;;;18.20;50.00;;;;;;4935988;28;85639;-33
2022/04/11 11:05:30;;;;;;;81.32;53.85;;;18.20;49.90;;;;;;4941828;28;88844;-33
2022/04/11 11:08:14;;;;;;;80.80;53.45;;;18.20;49.90;;;;;;4934684;28;90832;-33
2022/04/11 11:10:56;;;;;;;81.10;53.17;;;18.30;49.90;;;;;;4945185;28;92153;-33
2022/04/11 11:13:36;;;;;;;82.03;53.40;;;18.30;49.90;;;;;;4945570;28;86988;-33
2022/04/11 11:16:08;;;;;;;80.72;53.15;;;18.30;49.80;;;;;;4948104;28;87052;-33
2022/04/11 11:18:49;;;;;;;82.93;53.22;;;18.30;49.80;;;;;;4952126;28;85552;-33
2022/04/11 11:21:48;;;;;;;81.80;53.47;;;18.30;50.40;;;;;;4946017;28;87206;-33
2022/04/11 11:24:15;;;;;;;83.63;53.85;;;18.30;49.80;;;;;;4950818;28;86055;-33
2022/04/11 11:26:53;;;;;;;80.68;53.50;;;18.30;49.80;;;;;;4947545;28;87187;-33
2022/04/11 11:29:20;;;;;;;83.20;53.90;;;18.30;49.70;;;;;;4941322;28;85497;-33
2022/04/11 11:31:50;;;;;;;83.75;53.55;;;18.30;49.70;;;;;;4947903;28;86285;-33
2022/04/11 11:34:18;;;;;;;82.97;53.78;;;18.40;49.80;;;;;;4948134;28;85555;-33
2022/04/11 11:36:44;;;;;;;82.80;53.92;;;18.40;49.70;;;;;;4943281;28;86572;-33
2022/04/11 11:39:20;;;;;;;83.80;53.70;;;18.50;49.30;;;;;;4941864;28;90847;-33
2022/04/11 11:41:54;;;;;;;82.35;53.70;;;18.50;48.80;;;;;;4943979;28;86835;-33
2022/04/11 11:44:20;;;;;;;82.45;53.72;;;18.50;48.40;;;;;;4939001;28;87302;-33
2022/04/11 11:46:50;;;;;;;84.70;53.70;;;18.50;48.10;;;;;;4942326;28;91911;-34
2022/04/11 11:49:16;;;;;;;84.55;54.15;;;18.50;47.80;;;;;;4940591;28;85296;-32
2022/04/11 11:51:42;;;;;;;85.85;53.95;;;18.60;47.70;;;;;;4939938;28;86308;-33
2022/04/11 11:54:08;;;;;;;83.05;53.85;;;18.60;47.50;;;;;;4941418;28;93350;-33
2022/04/11 11:56:47;;;;;;;82.78;53.47;;;18.60;47.40;;;;;;4937298;28;86054;-33
2022/04/11 11:59:16;;;;;;;84.65;54.08;;;18.60;47.30;;;;;;4933442;28;87859;-33
2022/04/11 12:04:35;;;;;;;83.85;53.65;;;18.70;47.10;;;;;;4934952;28;88010;-32
2022/04/11 12:07:01;;;;;;;83.55;53.63;;;18.80;47.00;;;;;;4938312;28;86797;-33
2022/04/11 12:09:36;;;;;;;81.32;53.47;;;18.80;46.80;;;;;;4939795;28;89364;-33
2022/04/11 12:12:04;;;;;;;82.90;53.78;;;18.80;46.70;;;;;;4937258;28;90063;-34
2022/04/11 12:14:31;;;;;;;82.30;53.55;;;18.80;46.50;;;;;;4941520;28;85850;-33
2022/04/11 12:17:02;;;;;;;84.68;53.55;;;18.90;46.30;;;;;;4941157;28;86257;-33
2022/04/11 12:19:37;;;;;;;83.55;53.65;;;18.90;46.20;;;;;;4944685;28;85775;-33
2022/04/11 12:22:14;;;;;;;84.07;53.42;;;18.90;45.90;;;;;;4945515;28;91777;-33
2022/04/11 12:24:41;;;;;;;85.03;53.45;;;18.90;45.90;;;;;;4938459;28;85982;-33
2022/04/11 12:27:13;;;;;;;85.22;53.47;;;19.00;46.40;;;;;;4942907;28;85559;-33
2022/04/11 12:29:44;;;;;;;81.82;53.42;;;19.00;45.90;;;;;;4946208;28;86673;-34
2022/04/11 12:32:12;;;;;;;83.68;53.60;;;19.00;46.00;;;;;;4941426;28;85964;-33
2022/04/11 12:34:39;;;;;;;89.22;53.42;;;19.10;46.20;;;;;;4946050;28;85990;-33